Time;durP1;ratioP1;P1;durP2;ratioP2;P2;SDS_P1;SDS_P2;PMS_P1;PMS_P2;Temp;Humidity;BMP_temperature;BMP_pressure;BME280_temperature;BME280_humidity;BME280_pressure;Samples;Min_cycle;Max_cycle;Signal;HPM_P1;HPM_P2
2020/12/23 00:02:23;;;;;;;1.50;1.50;;;;;;;6.79;90.12;100226.56;6015123;29;20674;-79
2020/12/23 00:05:45;;;;;;;9.70;7.90;;;;;;;6.67;89.79;100205.69;6004624;29;20648;-79
2020/12/23 00:08:49;;;;;;;16.00;12.60;;;;;;;6.87;90.00;100225.50;6012611;29;20199;-80
2020/12/23 00:11:53;;;;;;;1.40;1.40;;;;;;;6.64;88.29;100214.22;6008804;29;20219;-79
2020/12/23 00:14:59;;;;;;;2.20;1.10;;;;;;;6.87;89.28;100239.06;6015099;29;20202;-80
2020/12/23 00:18:04;;;;;;;9.40;6.33;;;;;;;6.74;87.94;100233.63;6004211;29;20207;-79
2020/12/23 00:21:08;;;;;;;10.43;9.00;;;;;;;6.83;88.39;100222.38;6009322;29;20341;-80
2020/12/23 00:24:16;;;;;;;1.40;1.40;;;;;;;6.98;88.96;100238.47;6018270;29;20199;-79
2020/12/23 00:27:23;;;;;;;9.57;8.07;;;;;;;7.03;88.66;100238.69;6006752;29;20203;-79
2020/12/23 00:30:27;;;;;;;33.63;18.20;;;;;;;7.14;88.48;100240.75;6017714;29;20279;-85
2020/12/23 00:33:36;;;;;;;34.90;23.50;;;;;;;6.84;89.49;100236.78;6011791;29;20290;-78
2020/12/23 00:36:42;;;;;;;1.70;1.70;;;;;;;6.79;89.14;100225.72;6012324;29;20204;-79
2020/12/23 00:39:45;;;;;;;1.10;1.10;;;;;;;6.71;87.90;100210.47;6006030;29;20300;-79
2020/12/23 00:42:50;;;;;;;1.10;1.10;;;;;;;6.95;88.09;100233.44;6003423;29;20266;-79
2020/12/23 00:45:54;;;;;;;1.10;1.10;;;;;;;6.88;89.08;100227.19;6009270;29;20202;-80
2020/12/23 00:48:57;;;;;;;1.07;1.07;;;;;;;6.84;88.50;100223.22;5993042;29;20707;-79
2020/12/23 00:52:01;;;;;;;1.13;1.13;;;;;;;6.82;88.65;100209.03;6011940;29;20653;-85
2020/12/23 00:55:05;;;;;;;1.07;1.07;;;;;;;6.91;87.91;100229.47;6013699;29;20610;-82
2020/12/23 00:58:18;;;;;;;1.10;1.10;;;;;;;6.90;87.79;100228.66;5995458;29;20207;-79
2020/12/23 01:01:22;;;;;;;1.10;1.10;;;;;;;6.69;89.41;100225.28;6015543;29;20214;-83
2020/12/23 01:04:29;;;;;;;1.00;1.00;;;;;;;6.70;89.62;100237.81;6020866;29;20202;-78
2020/12/23 01:07:34;;;;;;;0.90;0.90;;;;;;;6.86;88.38;100237.41;6008047;29;20309;-81
2020/12/23 01:10:38;;;;;;;1.10;1.10;;;;;;;6.85;87.79;100235.75;6013875;29;20231;-78
2020/12/23 01:13:43;;;;;;;0.93;0.93;;;;;;;6.90;87.72;100249.50;6014013;29;20566;-80
2020/12/23 01:16:48;;;;;;;1.30;1.30;;;;;;;6.79;88.77;100236.56;6009579;29;20267;-80
2020/12/23 01:19:52;;;;;;;1.37;1.27;;;;;;;6.86;88.29;100237.41;6005824;29;20191;-79
2020/12/23 01:22:55;;;;;;;1.20;1.20;;;;;;;6.97;87.66;100250.34;6004464;29;20567;-78
2020/12/23 01:25:59;;;;;;;1.00;1.00;;;;;;;6.80;87.84;100252.63;6009368;29;20215;-79
2020/12/23 01:29:02;;;;;;;1.00;1.00;;;;;;;6.71;88.33;100255.72;6008249;29;20207;-80
2020/12/23 01:32:06;;;;;;;0.80;0.80;;;;;;;6.69;88.34;100263.25;6006885;29;20219;-79
2020/12/23 01:35:11;;;;;;;0.80;0.80;;;;;;;6.57;88.31;100262.19;6007605;29;20194;-76
2020/12/23 01:38:23;;;;;;;0.80;0.80;;;;;;;6.70;86.20;100251.38;6025097;29;20207;-79
2020/12/23 01:41:27;;;;;;;1.90;0.83;;;;;;;6.41;86.09;100228.16;6009909;29;20204;-80
2020/12/23 01:44:30;;;;;;;0.80;0.80;;;;;;;6.39;86.69;100270.03;6012286;29;20227;-82
2020/12/23 01:47:37;;;;;;;0.90;0.90;;;;;;;6.39;87.21;100256.50;6017776;29;20264;-78
2020/12/23 01:50:40;;;;;;;0.63;0.63;;;;;;;6.56;85.82;100252.38;6008935;29;20247;-79
2020/12/23 01:53:43;;;;;;;0.70;0.70;;;;;;;6.66;86.06;100247.38;6009003;29;20239;-81
2020/12/23 01:56:47;;;;;;;0.80;0.80;;;;;;;6.60;85.80;100253.66;6009331;29;20206;-79
2020/12/23 01:59:51;;;;;;;0.70;0.70;;;;;;;6.62;85.99;100265.94;6015449;29;20282;-80
2020/12/23 02:02:56;;;;;;;0.80;0.80;;;;;;;6.74;85.70;100258.03;6016222;29;20291;-79
2020/12/23 02:06:00;;;;;;;0.80;0.80;;;;;;;6.76;84.95;100264.06;5997759;29;20210;-79
2020/12/23 02:09:04;;;;;;;0.70;0.70;;;;;;;6.77;84.92;100265.75;6011477;29;20224;-78
2020/12/23 02:12:10;;;;;;;0.80;0.80;;;;;;;6.70;85.87;100262.22;6009282;29;20215;-79
2020/12/23 02:15:19;;;;;;;0.80;0.80;;;;;;;6.86;86.10;100264.50;6006702;29;20530;-80
2020/12/23 02:18:44;;;;;;;1.13;1.00;;;;;;;6.68;86.26;100234.44;6008557;29;20618;-78
2020/12/23 02:21:59;;;;;;;0.83;0.83;;;;;;;6.67;87.59;100238.22;6004149;29;20208;-81
2020/12/23 02:25:08;;;;;;;1.00;1.00;;;;;;;6.70;88.30;100237.81;6001443;29;20191;-80
2020/12/23 02:28:21;;;;;;;1.00;1.00;;;;;;;6.63;88.45;100243.22;6002663;29;20210;-77
2020/12/23 02:31:30;;;;;;;0.97;0.97;;;;;;;6.40;90.18;100240.03;6003305;29;20260;-78
2020/12/23 02:34:40;;;;;;;1.00;1.00;;;;;;;6.34;88.54;100240.84;6010850;29;20210;-81
2020/12/23 02:37:44;;;;;;;0.90;0.90;;;;;;;6.41;88.11;100255.25;6018017;29;20205;-80
2020/12/23 02:40:48;;;;;;;0.93;0.90;;;;;;;6.36;87.81;100229.81;6011059;29;20255;-84
2020/12/23 02:43:53;;;;;;;0.83;0.83;;;;;;;6.56;87.05;100263.22;6028620;29;20184;-80
2020/12/23 02:46:58;;;;;;;0.80;0.80;;;;;;;6.39;86.44;100235.66;6004922;29;20509;-79
2020/12/23 02:50:03;;;;;;;2.00;0.90;;;;;;;6.45;86.91;100239.41;6006277;29;20563;-80
2020/12/23 02:53:09;;;;;;;0.83;0.83;;;;;;;6.62;86.41;100257.81;6008449;29;20226;-81
2020/12/23 02:56:14;;;;;;;0.80;0.80;;;;;;;6.68;85.62;100253.41;6007624;29;20191;-80
2020/12/23 02:59:19;;;;;;;0.83;0.83;;;;;;;6.79;85.25;100247.41;6007317;29;20653;-80
2020/12/23 03:02:23;;;;;;;1.10;1.10;;;;;;;6.70;85.86;100245.94;6008936;29;20202;-80
2020/12/23 03:05:35;;;;;;;0.73;0.73;;;;;;;6.63;86.76;100253.22;6006287;29;20267;-81
2020/12/23 03:08:38;;;;;;;0.83;0.83;;;;;;;6.64;86.53;100244.88;6008042;29;20195;-78
2020/12/23 03:11:43;;;;;;;0.80;0.80;;;;;;;6.78;85.92;100240.31;6018865;29;20255;-80
2020/12/23 03:14:47;;;;;;;0.80;0.80;;;;;;;6.68;86.31;100248.00;6005901;29;20550;-80
2020/12/23 03:17:50;;;;;;;3.50;0.80;;;;;;;6.47;87.26;100226.50;5991281;29;20573;-79
2020/12/23 03:20:53;;;;;;;2.40;0.90;;;;;;;6.70;86.79;100248.66;6001905;29;20249;-79
2020/12/23 03:23:56;;;;;;;0.70;0.70;;;;;;;6.68;85.98;100226.31;6009190;29;20235;-81
2020/12/23 03:27:00;;;;;;;1.07;0.87;;;;;;;6.68;86.01;100239.88;6007012;29;20345;-77
2020/12/23 03:30:04;;;;;;;0.67;0.60;;;;;;;6.72;86.11;100241.16;6003849;29;20215;-79
2020/12/23 03:33:17;;;;;;;0.97;0.87;;;;;;;6.80;85.98;100238.25;6004935;29;20230;-80
2020/12/23 03:36:23;;;;;;;0.70;0.70;;;;;;;6.80;86.22;100244.50;6009227;29;20231;-79
2020/12/23 03:39:29;;;;;;;0.80;0.80;;;;;;;6.77;86.49;100249.50;6008338;29;20241;-82
2020/12/23 03:42:33;;;;;;;0.70;0.70;;;;;;;6.77;86.85;100244.06;6005645;29;20347;-79
2020/12/23 03:45:37;;;;;;;1.30;0.87;;;;;;;6.70;87.04;100237.81;5983992;29;20318;-78
2020/12/23 03:48:40;;;;;;;1.53;0.80;;;;;;;6.70;87.54;100248.66;6026487;29;20262;-84
2020/12/23 03:51:45;;;;;;;0.97;0.80;;;;;;;6.66;87.81;100252.81;6007279;29;20238;-80
2020/12/23 03:54:48;;;;;;;0.80;0.80;;;;;;;6.59;87.42;100244.66;6006316;29;20238;-78
2020/12/23 03:57:52;;;;;;;2.23;0.93;;;;;;;6.55;87.54;100229.03;6002651;29;20740;-79
2020/12/23 04:00:56;;;;;;;0.77;0.77;;;;;;;6.61;87.95;100244.44;6000782;29;20251;-78
2020/12/23 04:04:08;;;;;;;3.07;0.83;;;;;;;6.70;88.52;100245.94;6002847;29;20711;-79
2020/12/23 04:07:16;;;;;;;2.10;0.93;;;;;;;6.67;88.59;100249.06;6004744;29;20206;-79
2020/12/23 04:10:22;;;;;;;1.70;1.00;;;;;;;6.72;87.86;100247.41;5989243;29;20207;-80
2020/12/23 04:13:33;;;;;;;0.90;0.90;;;;;;;6.77;87.61;100265.75;6005113;29;20230;-79
2020/12/23 04:16:36;;;;;;;1.50;0.90;;;;;;;6.76;87.95;100253.22;6005685;29;20215;-80
2020/12/23 04:19:39;;;;;;;1.03;1.00;;;;;;;6.76;87.55;100247.81;6005706;29;20236;-78
2020/12/23 04:22:42;;;;;;;0.90;0.90;;;;;;;6.73;87.82;100253.63;5999885;29;20207;-78
2020/12/23 04:25:46;;;;;;;1.03;1.03;;;;;;;6.80;87.21;100243.66;6004789;29;20215;-79
2020/12/23 04:28:50;;;;;;;1.53;0.90;;;;;;;6.85;87.11;100250.13;6005647;29;20203;-79
2020/12/23 04:31:53;;;;;;;1.07;1.07;;;;;;;6.70;87.50;100254.88;6010146;29;20210;-80
2020/12/23 04:35:01;;;;;;;0.97;0.97;;;;;;;6.57;88.50;100248.63;6010981;29;20207;-80
2020/12/23 04:38:06;;;;;;;3.87;1.07;;;;;;;6.73;87.81;100248.22;6005175;29;20206;-78
2020/12/23 04:41:13;;;;;;;1.17;1.07;;;;;;;6.58;88.45;100255.69;6010533;29;20234;-81
2020/12/23 04:44:19;;;;;;;4.17;1.50;;;;;;;6.84;87.08;100261.19;6008442;29;20207;-80
2020/12/23 04:47:25;;;;;;;4.03;0.90;;;;;;;6.68;87.07;100239.88;6006711;29;20307;-79
2020/12/23 04:50:33;;;;;;;1.07;1.07;;;;;;;6.69;87.54;100263.25;6010207;29;20254;-78
2020/12/23 04:53:37;;;;;;;2.10;1.20;;;;;;;6.84;86.55;100262.00;6015135;29;20291;-83
2020/12/23 04:56:42;;;;;;;4.10;1.20;;;;;;;6.76;87.31;100258.66;6018959;29;20204;-79
2020/12/23 04:59:46;;;;;;;1.40;1.23;;;;;;;6.79;87.29;100260.97;6008974;29;20223;-78
2020/12/23 05:02:50;;;;;;;3.47;1.23;;;;;;;6.71;87.64;100262.00;6008786;29;20204;-78
2020/12/23 05:05:53;;;;;;;3.13;1.13;;;;;;;6.82;87.45;100252.41;6007997;29;20539;-79
2020/12/23 05:08:56;;;;;;;0.97;0.97;;;;;;;6.67;88.00;100268.03;6009498;29;20254;-79
2020/12/23 05:12:00;;;;;;;1.00;1.00;;;;;;;6.61;87.62;100256.13;6008548;29;20747;-78
2020/12/23 05:15:06;;;;;;;1.63;1.00;;;;;;;6.75;87.65;100270.56;6029748;29;20198;-81
2020/12/23 05:18:31;;;;;;;4.60;1.27;;;;;;;6.84;86.81;100247.63;6018429;29;20783;-78
2020/12/23 05:21:35;;;;;;;2.93;1.23;;;;;;;6.77;86.68;100244.06;6003129;29;20593;-79
2020/12/23 05:24:38;;;;;;;1.30;1.20;;;;;;;6.73;87.68;100259.06;6008855;29;20524;-79
2020/12/23 05:27:42;;;;;;;1.83;1.20;;;;;;;6.86;87.41;100259.09;6002649;29;20238;-79
2020/12/23 05:30:54;;;;;;;1.40;1.30;;;;;;;6.85;87.22;100252.00;6009350;29;20898;-78
2020/12/23 05:33:58;;;;;;;3.60;1.70;;;;;;;6.71;88.44;100247.59;6003503;29;20223;-79
2020/12/23 05:37:19;;;;;;;3.97;1.10;;;;;;;6.84;86.80;100250.31;6005991;29;20208;-80
2020/12/23 05:40:22;;;;;;;3.90;1.20;;;;;;;6.72;87.24;100235.72;6012730;29;20259;-80
2020/12/23 05:43:28;;;;;;;2.00;1.00;;;;;;;6.72;86.73;100230.31;6005758;29;20565;-77
2020/12/23 05:46:34;;;;;;;4.77;1.10;;;;;;;6.81;87.46;100250.75;6003754;29;20203;-79
2020/12/23 05:49:38;;;;;;;4.17;1.33;;;;;;;6.87;86.63;100250.75;6008711;29;20230;-79
2020/12/23 05:52:42;;;;;;;1.47;1.37;;;;;;;6.79;86.28;100231.97;5991426;29;20254;-81
2020/12/23 05:55:46;;;;;;;1.90;1.40;;;;;;;6.87;85.94;100252.63;6007437;29;22332;-79
2020/12/23 05:58:49;;;;;;;1.60;1.30;;;;;;;6.96;85.42;100243.22;6010236;29;20437;-78
2020/12/23 06:01:57;;;;;;;6.27;1.67;;;;;;;6.98;85.73;100246.59;6012454;29;20216;-80
2020/12/23 06:05:02;;;;;;;4.20;1.40;;;;;;;6.75;86.90;100251.59;6009386;29;20255;-77
2020/12/23 06:08:18;;;;;;;5.53;1.40;;;;;;;6.83;86.60;100254.91;6008737;29;20200;-79
2020/12/23 06:11:35;;;;;;;5.10;1.20;;;;;;;6.85;86.29;100252.84;6002272;29;20299;-78
2020/12/23 06:14:51;;;;;;;2.67;1.20;;;;;;;6.94;85.84;100250.75;6013769;29;20219;-78
2020/12/23 06:17:57;;;;;;;1.37;1.37;;;;;;;6.95;85.55;100260.56;6015178;29;20639;-78
2020/12/23 06:21:08;;;;;;;5.47;1.47;;;;;;;6.96;85.65;100266.84;6012517;29;20543;-78
2020/12/23 06:24:13;;;;;;;6.37;1.50;;;;;;;7.03;85.40;100263.09;6008225;29;20203;-79
2020/12/23 06:27:17;;;;;;;8.80;1.10;;;;;;;6.79;85.96;100252.81;6011033;29;20210;-80
2020/12/23 06:30:25;;;;;;;3.33;1.80;;;;;;;6.83;85.55;100251.38;6008119;29;20195;-79
2020/12/23 06:33:38;;;;;;;3.20;1.20;;;;;;;7.15;84.49;100271.41;6008696;29;20314;-79
2020/12/23 06:36:42;;;;;;;6.20;1.70;;;;;;;7.01;84.47;100267.03;6008266;29;20687;-79
2020/12/23 06:39:47;;;;;;;5.43;1.17;;;;;;;6.93;85.92;100276.22;6007550;29;20209;-80
2020/12/23 06:42:52;;;;;;;3.63;1.30;;;;;;;7.03;85.02;100287.50;6006965;29;20345;-78
2020/12/23 06:45:55;;;;;;;2.87;1.53;;;;;;;7.07;84.62;100288.75;6006108;29;20200;-78
2020/12/23 06:49:14;;;;;;;7.63;2.53;;;;;;;7.06;85.08;100281.63;6007940;29;20191;-79
2020/12/23 06:52:43;;;;;;;6.57;1.60;;;;;;;6.63;86.44;100266.75;5998602;29;20244;-79
2020/12/23 06:55:47;;;;;;;6.30;1.40;;;;;;;6.85;86.22;100279.97;6006182;29;20612;-83
2020/12/23 06:58:50;;;;;;;6.43;1.47;;;;;;;6.79;86.62;100296.22;6010350;29;20220;-79
2020/12/23 07:01:54;;;;;;;5.93;1.87;;;;;;;6.93;86.19;100300.63;6005520;29;20247;-80
2020/12/23 07:04:59;;;;;;;4.07;1.50;;;;;;;6.81;87.29;100299.53;6000907;29;20204;-83
2020/12/23 07:08:29;;;;;;;5.87;1.90;;;;;;;6.68;87.78;100294.09;6021282;29;20271;-79
2020/12/23 07:11:36;;;;;;;3.83;1.40;;;;;;;6.80;87.87;100308.72;6005543;29;20320;-79
2020/12/23 07:15:05;;;;;;;6.67;1.67;;;;;;;6.82;86.90;100306.66;6006419;29;20196;-79
2020/12/23 07:18:24;;;;;;;4.87;1.70;;;;;;;6.85;87.33;100306.25;6006275;29;20260;-78
2020/12/23 07:21:29;;;;;;;3.70;1.30;;;;;;;6.66;87.30;100271.78;6005221;29;20241;-79
2020/12/23 07:24:35;;;;;;;4.07;1.53;;;;;;;6.91;87.01;100310.81;6006551;29;20218;-79
2020/12/23 07:27:41;;;;;;;6.57;1.30;;;;;;;6.95;86.60;100317.53;6002709;29;20206;-79
2020/12/23 07:30:45;;;;;;;8.47;1.80;;;;;;;6.77;86.57;100309.97;6004456;29;20309;-80
2020/12/23 07:33:52;;;;;;;7.20;1.70;;;;;;;6.77;86.71;100318.13;6005504;29;20226;-79
2020/12/23 07:37:02;;;;;;;6.50;1.73;;;;;;;6.97;86.00;100326.28;6006144;29;20280;-78
2020/12/23 07:40:14;;;;;;;3.50;1.50;;;;;;;6.91;86.24;100329.81;5999600;29;20690;-78
2020/12/23 07:43:26;;;;;;;3.60;1.40;;;;;;;6.96;86.40;100330.03;6004719;29;20208;-79
2020/12/23 07:46:30;;;;;;;4.80;1.50;;;;;;;6.97;85.52;100315.44;6001998;29;20231;-79
2020/12/23 07:49:33;;;;;;;4.53;1.70;;;;;;;7.03;85.98;100325.47;6000505;29;20217;-79
2020/12/23 07:52:40;;;;;;;4.40;1.57;;;;;;;7.00;86.51;100336.72;6005789;29;20253;-78
2020/12/23 07:55:44;;;;;;;4.60;1.77;;;;;;;6.84;86.12;100309.97;6006667;29;20235;-79
2020/12/23 07:58:48;;;;;;;12.83;1.70;;;;;;;6.91;86.39;100335.22;6006877;29;20255;-79
2020/12/23 08:01:52;;;;;;;1.97;1.80;;;;;;;6.97;86.15;100337.13;6009527;29;20214;-83
2020/12/23 08:04:55;;;;;;;2.67;1.60;;;;;;;6.92;86.50;100336.91;6004621;29;20718;-80
2020/12/23 08:08:00;;;;;;;4.87;1.60;;;;;;;7.05;85.92;100328.81;6006377;29;20211;-79
2020/12/23 08:11:07;;;;;;;3.83;1.57;;;;;;;6.94;86.15;100315.84;6012519;29;20271;-83
2020/12/23 08:14:16;;;;;;;4.40;1.77;;;;;;;6.88;85.90;100311.25;6010439;29;20287;-79
2020/12/23 08:17:20;;;;;;;1.40;1.30;;;;;;;6.73;86.37;100302.44;6006673;29;20233;-80
2020/12/23 08:20:31;;;;;;;6.57;1.80;;;;;;;6.74;86.14;100306.84;6012149;29;20271;-83
2020/12/23 08:23:37;;;;;;;8.73;1.90;;;;;;;6.89;85.79;100323.75;6008842;29;20207;-80
2020/12/23 08:26:43;;;;;;;2.83;1.80;;;;;;;6.71;85.57;100304.53;6012566;29;20545;-81
2020/12/23 08:29:46;;;;;;;6.73;2.00;;;;;;;6.81;86.08;100322.06;6008188;29;20207;-80
2020/12/23 08:32:56;;;;;;;6.07;1.53;;;;;;;6.99;84.73;100335.03;6021778;29;20257;-78
2020/12/23 08:36:01;;;;;;;4.57;1.60;;;;;;;6.86;85.53;100318.75;6019494;29;20210;-80
2020/12/23 08:39:22;;;;;;;5.30;1.77;;;;;;;6.83;86.32;100330.03;6014287;29;20355;-78
2020/12/23 08:42:26;;;;;;;6.40;1.93;;;;;;;6.76;86.17;100337.28;6006887;29;20582;-79
2020/12/23 08:45:30;;;;;;;4.07;1.80;;;;;;;6.91;86.21;100343.38;6010374;29;20560;-79
2020/12/23 08:48:47;;;;;;;4.03;1.47;;;;;;;6.88;85.63;100338.38;6011485;29;20382;-81
2020/12/23 08:51:50;;;;;;;1.47;1.10;;;;;;;6.84;85.81;100337.94;6013270;29;20281;-77
2020/12/23 08:54:55;;;;;;;9.07;1.70;;;;;;;6.84;85.93;100337.09;6008242;29;20257;-79
2020/12/23 08:58:06;;;;;;;2.30;1.30;;;;;;;6.85;85.20;100341.50;6015992;29;20562;-80
2020/12/23 09:01:22;;;;;;;4.10;1.50;;;;;;;6.93;84.07;100354.88;6021360;29;20199;-80
2020/12/23 09:04:34;;;;;;;4.20;1.40;;;;;;;7.02;83.22;100363.63;6030028;29;20298;-82
2020/12/23 09:07:37;;;;;;;2.17;1.40;;;;;;;6.99;83.26;100351.31;6039412;29;20728;-83
2020/12/23 09:10:53;;;;;;;4.97;1.30;;;;;;;6.79;83.62;100323.31;6026898;29;20282;-80
2020/12/23 09:13:56;;;;;;;1.57;1.47;;;;;;;6.67;83.93;100352.06;6023205;29;20222;-82
2020/12/23 09:17:02;;;;;;;3.10;1.40;;;;;;;6.87;84.08;100380.06;6021274;29;20198;-79
2020/12/23 09:20:06;;;;;;;5.30;1.47;;;;;;;6.69;83.67;100377.09;6018737;29;20600;-79
2020/12/23 09:23:22;;;;;;;6.67;1.40;;;;;;;6.80;83.19;100379.22;6009500;29;20229;-78
2020/12/23 09:26:27;;;;;;;2.93;1.20;;;;;;;6.93;82.85;100390.13;6009193;29;20255;-80
2020/12/23 09:29:42;;;;;;;5.37;1.43;;;;;;;6.65;81.78;100402.94;6010150;29;20202;-80
2020/12/23 09:32:53;;;;;;;2.60;1.30;;;;;;;6.65;81.13;100375.84;6017742;29;20942;-80
2020/12/23 09:36:04;;;;;;;2.33;1.20;;;;;;;6.82;82.33;100388.84;6023843;29;20340;-78
2020/12/23 09:39:09;;;;;;;1.67;1.17;;;;;;;6.72;80.39;100395.66;6021162;29;20295;-81
2020/12/23 09:42:17;;;;;;;2.90;1.17;;;;;;;6.81;77.36;100394.44;6012169;29;20204;-83
2020/12/23 09:45:20;;;;;;;1.17;1.10;;;;;;;6.83;77.56;100400.53;6025724;29;20211;-82
2020/12/23 09:48:29;;;;;;;4.63;1.13;;;;;;;6.91;78.23;100397.59;6025917;29;20536;-82
2020/12/23 09:51:32;;;;;;;1.37;1.20;;;;;;;6.92;78.18;100393.88;6025766;29;20248;-81
2020/12/23 09:54:35;;;;;;;3.50;1.10;;;;;;;6.83;80.23;100395.09;6025515;29;20271;-79
2020/12/23 09:57:39;;;;;;;6.60;1.30;;;;;;;6.67;80.33;100343.94;6025096;29;20704;-81
2020/12/23 10:00:44;;;;;;;1.70;1.20;;;;;;;7.03;79.27;100390.56;6019031;29;20208;-78
2020/12/23 10:04:01;;;;;;;4.53;1.30;;;;;;;6.95;79.81;100404.31;6017396;29;20632;-83
2020/12/23 10:07:06;;;;;;;3.33;1.50;;;;;;;7.00;79.61;100399.09;6023954;29;20545;-81
2020/12/23 10:10:16;;;;;;;7.07;1.80;;;;;;;6.79;79.78;100369.41;6025831;29;20219;-81
2020/12/23 10:13:24;;;;;;;3.60;1.40;;;;;;;6.92;80.31;100389.28;6022817;29;20242;-82
2020/12/23 10:16:31;;;;;;;2.53;1.30;;;;;;;6.99;79.75;100388.44;6026403;29;20210;-83
2020/12/23 10:19:35;;;;;;;2.17;1.43;;;;;;;6.96;80.49;100389.69;6025584;29;20203;-82
2020/12/23 10:22:38;;;;;;;2.47;1.50;;;;;;;6.89;79.71;100394.25;6025089;29;20211;-80
2020/12/23 10:25:42;;;;;;;4.97;1.60;;;;;;;6.78;80.17;100368.56;6033783;29;20267;-82
2020/12/23 10:28:46;;;;;;;7.43;1.50;;;;;;;6.88;78.96;100387.19;6016199;29;20268;-80
2020/12/23 10:31:49;;;;;;;7.07;1.73;;;;;;;6.78;79.08;100362.31;6029000;29;20255;-79
2020/12/23 10:34:52;;;;;;;5.27;1.77;;;;;;;6.92;79.82;100385.72;6021164;29;20312;-80
2020/12/23 10:37:55;;;;;;;3.70;1.33;;;;;;;6.69;80.91;100388.78;6013399;29;20212;-82
2020/12/23 10:40:59;;;;;;;4.53;1.30;;;;;;;6.83;80.30;100395.09;6015590;29;20302;-80
2020/12/23 10:44:03;;;;;;;3.33;1.27;;;;;;;6.95;80.07;100398.88;6020262;29;20218;-81
2020/12/23 10:47:08;;;;;;;2.83;1.27;;;;;;;6.77;79.03;100379.63;6013277;29;20502;-77
2020/12/23 10:50:13;;;;;;;4.93;1.53;;;;;;;6.79;78.30;100391.09;6005879;29;20310;-80
2020/12/23 10:53:27;;;;;;;4.80;1.77;;;;;;;6.72;78.75;100390.25;6008784;29;20224;-81
2020/12/23 10:56:30;;;;;;;2.73;1.30;;;;;;;6.62;78.14;100382.50;6011555;29;20640;-80
2020/12/23 10:59:34;;;;;;;5.33;1.70;;;;;;;6.53;77.76;100381.00;6021181;29;20218;-84
2020/12/23 11:02:38;;;;;;;0.90;0.90;;;;;;;6.30;76.85;100408.38;6024550;29;20195;-79
2020/12/23 11:05:41;;;;;;;3.43;1.10;;;;;;;6.19;77.81;100378.31;6018654;29;20210;-81
2020/12/23 11:08:45;;;;;;;1.00;1.00;;;;;;;6.38;78.08;100379.44;6005846;29;20395;-80
2020/12/23 11:11:49;;;;;;;2.97;1.00;;;;;;;6.42;78.58;100380.75;6011155;29;20192;-83
2020/12/23 11:14:53;;;;;;;3.27;1.20;;;;;;;6.52;78.49;100386.63;6012867;29;20577;-84
2020/12/23 11:17:57;;;;;;;2.23;1.27;;;;;;;6.39;78.30;100386.56;6030997;29;20199;-83
2020/12/23 11:21:00;;;;;;;2.50;1.47;;;;;;;6.42;79.01;100386.16;6018212;29;20221;-77
2020/12/23 11:24:04;;;;;;;3.60;1.13;;;;;;;6.57;79.24;100392.28;6006397;29;20227;-82
2020/12/23 11:27:08;;;;;;;4.37;1.20;;;;;;;6.66;79.33;100388.34;6007046;29;20229;-78
2020/12/23 11:30:16;;;;;;;5.20;1.10;;;;;;;6.44;79.61;100403.06;6027518;29;20207;-79
2020/12/23 11:33:30;;;;;;;2.60;1.17;;;;;;;6.43;80.11;100398.66;6017760;29;20263;-79
2020/12/23 11:36:33;;;;;;;1.50;1.40;;;;;;;6.48;80.36;100397.03;6004298;29;20203;-77
2020/12/23 11:39:36;;;;;;;2.87;1.20;;;;;;;6.47;79.73;100406.16;6005175;29;20659;-78
2020/12/23 11:42:42;;;;;;;4.33;1.50;;;;;;;6.43;80.17;100420.34;6011880;29;20215;-78
2020/12/23 11:45:46;;;;;;;1.87;0.97;;;;;;;6.27;79.74;100395.25;6016788;29;20247;-79
2020/12/23 11:48:50;;;;;;;5.37;1.70;;;;;;;6.30;79.60;100405.69;6022744;29;20709;-79
2020/12/23 11:51:53;;;;;;;2.47;1.20;;;;;;;6.47;79.40;100416.19;6018781;29;20219;-79
2020/12/23 11:54:57;;;;;;;1.50;1.10;;;;;;;6.50;79.21;100427.47;6006695;29;20295;-79
2020/12/23 11:58:00;;;;;;;2.90;1.10;;;;;;;6.15;79.50;100391.44;6011602;29;20217;-78
2020/12/23 12:01:05;;;;;;;4.27;1.10;;;;;;;6.55;79.20;100429.59;6009564;29;20591;-78
2020/12/23 12:04:14;;;;;;;1.30;1.20;;;;;;;6.49;79.38;100424.97;6017798;29;20199;-78
2020/12/23 12:07:21;;;;;;;1.10;1.10;;;;;;;6.25;79.18;100427.13;6010045;29;20210;-80
2020/12/23 12:10:24;;;;;;;2.93;1.27;;;;;;;6.52;78.97;100446.25;6017086;29;20199;-79
2020/12/23 12:13:31;;;;;;;2.57;1.40;;;;;;;6.49;79.44;100461.03;6005385;29;20230;-79
2020/12/23 12:16:35;;;;;;;1.50;1.40;;;;;;;6.37;79.12;100456.38;6013819;29;20198;-78
2020/12/23 12:19:38;;;;;;;3.33;1.33;;;;;;;6.41;78.22;100454.94;6015420;29;20203;-82
2020/12/23 12:22:41;;;;;;;3.73;1.30;;;;;;;6.44;78.33;100471.63;6001045;29;20604;-76
2020/12/23 12:25:46;;;;;;;3.47;1.30;;;;;;;6.42;78.97;100467.44;5994710;29;20207;-79
2020/12/23 12:28:50;;;;;;;4.47;1.17;;;;;;;6.47;78.35;100432.47;6002702;29;20556;-79
2020/12/23 12:31:54;;;;;;;2.00;1.20;;;;;;;6.47;78.37;100464.97;5997135;29;20246;-78
2020/12/23 12:34:57;;;;;;;2.00;1.10;;;;;;;6.43;78.28;100447.44;6000562;29;20222;-79
2020/12/23 12:38:07;;;;;;;2.27;1.37;;;;;;;6.40;77.71;100442.41;6017052;29;20235;-81
2020/12/23 12:41:21;;;;;;;3.73;1.17;;;;;;;6.29;78.73;100463.59;5997847;29;20688;-79
2020/12/23 12:44:24;;;;;;;1.20;1.10;;;;;;;6.21;79.55;100466.47;5997600;29;20211;-79
2020/12/23 12:47:28;;;;;;;1.23;0.87;;;;;;;6.30;78.80;100453.59;6003180;29;20671;-81
2020/12/23 12:50:32;;;;;;;1.10;1.10;;;;;;;6.35;78.72;100461.13;5997892;29;20316;-78
2020/12/23 12:53:36;;;;;;;4.03;1.40;;;;;;;6.29;79.26;100447.34;6007253;29;20234;-78
2020/12/23 12:56:41;;;;;;;3.73;1.30;;;;;;;6.34;79.19;100440.50;6003647;29;20207;-80
2020/12/23 12:59:44;;;;;;;2.13;1.10;;;;;;;6.34;79.27;100454.91;6003815;29;20321;-79
2020/12/23 13:02:49;;;;;;;3.67;1.50;;;;;;;6.35;79.88;100461.13;6016051;29;20221;-78
2020/12/23 13:05:53;;;;;;;3.23;1.30;;;;;;;6.22;79.47;100457.31;6017009;29;20214;-79
2020/12/23 13:08:57;;;;;;;2.37;1.30;;;;;;;6.05;80.12;100464.06;6013769;29;20202;-82
2020/12/23 13:12:11;;;;;;;1.60;1.20;;;;;;;6.23;79.96;100469.84;6010782;29;20269;-78
2020/12/23 13:15:17;;;;;;;2.93;1.40;;;;;;;6.14;80.04;100460.16;6010629;29;20282;-82
2020/12/23 13:18:25;;;;;;;4.13;1.20;;;;;;;6.30;79.08;100481.53;6008637;29;20263;-78
2020/12/23 13:21:29;;;;;;;4.60;1.20;;;;;;;6.12;79.89;100473.06;6013285;29;20666;-80
2020/12/23 13:24:32;;;;;;;1.90;1.20;;;;;;;6.09;80.10;100478.88;6012447;29;20219;-79
2020/12/23 13:27:36;;;;;;;3.80;1.30;;;;;;;5.96;79.81;100467.94;6009335;29;20258;-79
2020/12/23 13:30:45;;;;;;;2.20;1.30;;;;;;;6.06;79.96;100481.97;6007888;29;20203;-79
2020/12/23 13:33:50;;;;;;;2.83;1.40;;;;;;;5.89;80.34;100472.47;6002779;29;20229;-79
2020/12/23 13:36:54;;;;;;;2.80;1.50;;;;;;;5.96;81.48;100489.59;5998088;29;20274;-79
2020/12/23 13:39:57;;;;;;;1.93;1.30;;;;;;;5.88;80.71;100451.03;6012514;29;20212;-78
2020/12/23 13:43:00;;;;;;;2.87;1.50;;;;;;;6.08;80.57;100488.06;6028377;29;20210;-80
2020/12/23 13:46:07;;;;;;;3.57;1.60;;;;;;;5.69;81.51;100476.84;6010139;29;20450;-80
2020/12/23 13:49:19;;;;;;;6.70;1.20;;;;;;;5.98;81.22;100492.97;6007727;29;20564;-79
2020/12/23 13:52:26;;;;;;;4.07;1.53;;;;;;;5.92;81.88;100504.56;6007649;29;20232;-78
2020/12/23 13:55:29;;;;;;;0.97;0.90;;;;;;;6.06;80.69;100481.16;6007016;29;20245;-79
2020/12/23 13:58:33;;;;;;;2.30;1.47;;;;;;;5.98;81.28;100497.53;5998450;29;20223;-78
2020/12/23 14:01:37;;;;;;;3.13;1.70;;;;;;;5.84;81.94;100499.25;6009471;29;20324;-79
2020/12/23 14:04:41;;;;;;;7.40;1.90;;;;;;;5.99;81.37;100507.31;6004628;29;20213;-78
2020/12/23 14:07:44;;;;;;;2.00;1.60;;;;;;;6.07;81.45;100494.50;6009437;29;20308;-79
2020/12/23 14:10:48;;;;;;;5.40;1.80;;;;;;;5.92;82.39;100509.16;6006433;29;20636;-78
2020/12/23 14:13:51;;;;;;;4.80;1.43;;;;;;;5.96;82.66;100521.25;6007603;29;20213;-78
2020/12/23 14:16:54;;;;;;;5.80;1.50;;;;;;;5.91;82.43;100524.56;6002533;29;20210;-78
2020/12/23 14:19:59;;;;;;;3.00;1.40;;;;;;;5.88;82.70;100513.28;6008729;29;20222;-79
2020/12/23 14:23:03;;;;;;;2.03;1.30;;;;;;;5.58;84.18;100528.75;6007283;29;20214;-78
2020/12/23 14:26:06;;;;;;;2.17;1.33;;;;;;;5.47;84.43;100526.59;6010373;29;20657;-78
2020/12/23 14:29:10;;;;;;;1.50;1.40;;;;;;;5.55;84.33;100521.03;5991489;29;20237;-79
2020/12/23 14:32:16;;;;;;;5.50;2.07;;;;;;;5.60;84.25;100521.28;6014563;29;20658;-78
2020/12/23 14:35:24;;;;;;;5.47;1.70;;;;;;;5.57;84.49;100521.69;6001223;29;20225;-77
2020/12/23 14:38:30;;;;;;;6.17;1.50;;;;;;;5.67;83.76;100516.81;6004051;29;20218;-78